Time;durP1;ratioP1;P1;durP2;ratioP2;P2;SDS_P1;SDS_P2;PMS_P1;PMS_P2;Temp;Humidity;BMP_temperature;BMP_pressure;BME280_temperature;BME280_humidity;BME280_pressure;Samples;Min_cycle;Max_cycle;Signal;HPM_P1;HPM_P2
2022/09/18 00:00:46;;;;;;;0.60;0.60;;;;;;;;;;5091561;28;20728;-83
2022/09/18 00:03:13;;;;;;;0.57;0.57;;;;;;;;;;5091652;28;20245;-82
2022/09/18 00:05:40;;;;;;;0.40;0.40;;;;;;;;;;5091475;28;20204;-82
2022/09/18 00:08:08;;;;;;;0.50;0.50;;;;;;;;;;5091290;28;20208;-83
2022/09/18 00:10:40;;;;;;;1.50;0.77;;;;;;;;;;5091540;28;20196;-82
2022/09/18 00:13:06;;;;;;;0.30;0.30;;;;;;;;;;5091855;28;20204;-82
2022/09/18 00:15:33;;;;;;;0.40;0.40;;;;;;;;;;5091077;28;20208;-83
2022/09/18 00:18:00;;;;;;;0.40;0.40;;;;;;;;;;5091266;28;20204;-82
2022/09/18 00:20:27;;;;;;;0.50;0.50;;;;;;;;;;5091249;28;20216;-83
2022/09/18 00:22:53;;;;;;;0.37;0.37;;;;;;;;;;5091412;28;20209;-81
2022/09/18 00:25:22;;;;;;;1.10;1.10;;;;;;;;;;5091340;28;20204;-81
2022/09/18 00:27:48;;;;;;;0.23;0.20;;;;;;;;;;5090637;28;20283;-82
2022/09/18 00:30:16;;;;;;;0.27;0.27;;;;;;;;;;5091221;28;20228;-82
2022/09/18 00:32:42;;;;;;;0.50;0.50;;;;;;;;;;5091282;28;20222;-82
2022/09/18 00:35:09;;;;;;;0.50;0.50;;;;;;;;;;5090810;28;20215;-82
2022/09/18 00:37:36;;;;;;;0.43;0.43;;;;;;;;;;5091268;28;20197;-82
2022/09/18 00:40:04;;;;;;;0.53;0.53;;;;;;;;;;5090638;28;20216;-82
2022/09/18 00:42:32;;;;;;;0.53;0.53;;;;;;;;;;5091274;28;20200;-83
2022/09/18 00:44:59;;;;;;;0.20;0.20;;;;;;;;;;5090675;28;20204;-82
2022/09/18 00:47:30;;;;;;;0.40;0.40;;;;;;;;;;5091052;28;20648;-83
2022/09/18 00:50:01;;;;;;;0.20;0.20;;;;;;;;;;5090849;28;20294;-82
2022/09/18 00:52:32;;;;;;;1.90;1.03;;;;;;;;;;5091199;28;20210;-82
2022/09/18 00:55:02;;;;;;;0.37;0.37;;;;;;;;;;5090827;28;20285;-82
2022/09/18 00:57:31;;;;;;;0.40;0.40;;;;;;;;;;5090725;28;20196;-82
2022/09/18 01:00:01;;;;;;;0.30;0.30;;;;;;;;;;5090213;28;20236;-82
2022/09/18 01:02:28;;;;;;;0.27;0.27;;;;;;;;;;5091061;28;20199;-82
2022/09/18 01:04:55;;;;;;;0.57;0.57;;;;;;;;;;5090867;28;20211;-82
2022/09/18 01:07:31;;;;;;;0.13;0.13;;;;;;;;;;5090479;28;20709;-82
2022/09/18 01:10:06;;;;;;;0.40;0.40;;;;;;;;;;5090798;28;20269;-82
2022/09/18 01:12:38;;;;;;;0.30;0.30;;;;;;;;;;5090582;28;20197;-83
2022/09/18 01:15:12;;;;;;;0.30;0.30;;;;;;;;;;5090248;28;20203;-82
2022/09/18 01:17:44;;;;;;;0.57;0.57;;;;;;;;;;5090465;28;20203;-82
2022/09/18 01:20:40;;;;;;;0.40;0.40;;;;;;;;;;5090323;28;20229;-82
2022/09/18 01:23:31;;;;;;;0.40;0.40;;;;;;;;;;5090690;28;20204;-82
2022/09/18 01:26:06;;;;;;;0.57;0.57;;;;;;;;;;5090114;28;20199;-82
2022/09/18 01:28:38;;;;;;;0.33;0.33;;;;;;;;;;5090492;28;20249;-82
2022/09/18 01:31:08;;;;;;;1.13;0.30;;;;;;;;;;5090620;28;20235;-82
2022/09/18 01:33:47;;;;;;;0.37;0.37;;;;;;;;;;5090188;28;20200;-82
2022/09/18 01:36:15;;;;;;;0.20;0.20;;;;;;;;;;5090227;28;20204;-82
2022/09/18 01:38:47;;;;;;;0.57;0.57;;;;;;;;;;5090366;28;20211;-82
2022/09/18 01:41:18;;;;;;;0.27;0.27;;;;;;;;;;5093206;28;20258;-82
2022/09/18 01:43:50;;;;;;;0.50;0.50;;;;;;;;;;5094726;28;20254;-82
2022/09/18 01:46:19;;;;;;;0.47;0.30;;;;;;;;;;5094482;28;20200;-82
2022/09/18 01:48:49;;;;;;;0.70;0.57;;;;;;;;;;5094069;28;20649;-82
2022/09/18 01:51:19;;;;;;;0.30;0.30;;;;;;;;;;5094437;28;20674;-82
2022/09/18 01:53:47;;;;;;;0.70;0.70;;;;;;;;;;5093744;28;20196;-82
2022/09/18 01:56:17;;;;;;;0.50;0.50;;;;;;;;;;5094226;28;20595;-82
2022/09/18 01:58:46;;;;;;;0.47;0.47;;;;;;;;;;5093913;28;20208;-82
2022/09/18 02:01:15;;;;;;;0.30;0.30;;;;;;;;;;5094126;28;20737;-82
2022/09/18 02:03:45;;;;;;;0.73;0.73;;;;;;;;;;5094003;28;20208;-82
2022/09/18 02:06:15;;;;;;;0.60;0.60;;;;;;;;;;5093933;28;20646;-82
2022/09/18 02:08:44;;;;;;;2.37;0.70;;;;;;;;;;5093704;28;20212;-82
2022/09/18 02:11:13;;;;;;;0.57;0.57;;;;;;;;;;5094134;28;20253;-82
2022/09/18 02:13:43;;;;;;;0.40;0.40;;;;;;;;;;5093750;28;20681;-82
2022/09/18 02:16:16;;;;;;;0.50;0.50;;;;;;;;;;5093491;28;20203;-82
2022/09/18 02:18:46;;;;;;;0.70;0.70;;;;;;;;;;5093637;28;20576;-82
2022/09/18 02:21:16;;;;;;;0.30;0.30;;;;;;;;;;5093600;28;20233;-82
2022/09/18 02:23:44;;;;;;;0.40;0.40;;;;;;;;;;5093661;28;20198;-83
2022/09/18 02:26:12;;;;;;;0.43;0.43;;;;;;;;;;5093780;28;20207;-82
2022/09/18 02:28:40;;;;;;;0.40;0.40;;;;;;;;;;5093336;28;20226;-82
2022/09/18 02:31:06;;;;;;;0.30;0.30;;;;;;;;;;5093570;28;20212;-82
2022/09/18 02:33:37;;;;;;;0.57;0.57;;;;;;;;;;5093307;28;20202;-82
2022/09/18 02:36:25;;;;;;;0.53;0.53;;;;;;;;;;5092369;28;20699;-82
2022/09/18 02:39:00;;;;;;;0.53;0.53;;;;;;;;;;5085406;28;20206;-81
2022/09/18 02:41:33;;;;;;;0.37;0.30;;;;;;;;;;5089246;28;20661;-80
2022/09/18 02:44:04;;;;;;;0.20;0.20;;;;;;;;;;5092040;28;20202;-81
2022/09/18 02:46:36;;;;;;;0.20;0.20;;;;;;;;;;5092762;28;20207;-82
2022/09/18 02:49:10;;;;;;;0.30;0.30;;;;;;;;;;5092551;28;20211;-81
2022/09/18 02:51:43;;;;;;;0.20;0.20;;;;;;;;;;5090985;28;20624;-81
2022/09/18 02:54:13;;;;;;;0.20;0.20;;;;;;;;;;5091210;28;20204;-82
2022/09/18 02:56:44;;;;;;;0.57;0.50;;;;;;;;;;5091653;28;20212;-81
2022/09/18 02:59:14;;;;;;;0.60;0.60;;;;;;;;;;5091522;28;20201;-81
2022/09/18 03:01:43;;;;;;;0.40;0.40;;;;;;;;;;5091185;28;20223;-82
2022/09/18 03:04:13;;;;;;;0.30;0.30;;;;;;;;;;5090947;28;20563;-81
2022/09/18 03:06:40;;;;;;;0.40;0.40;;;;;;;;;;5091596;28;20204;-81
2022/09/18 03:09:07;;;;;;;0.27;0.27;;;;;;;;;;5084821;28;20273;-80
2022/09/18 03:11:34;;;;;;;0.17;0.17;;;;;;;;;;5091037;28;20680;-81
2022/09/18 03:14:01;;;;;;;0.53;0.53;;;;;;;;;;5089073;28;20201;-81
2022/09/18 03:16:27;;;;;;;0.23;0.23;;;;;;;;;;5087817;28;20367;-81
2022/09/18 03:18:54;;;;;;;0.23;0.20;;;;;;;;;;5090912;28;20238;-82
2022/09/18 03:21:23;;;;;;;0.60;0.60;;;;;;;;;;5086055;28;20223;-82
2022/09/18 03:23:50;;;;;;;0.53;0.53;;;;;;;;;;5091551;28;20238;-88
2022/09/18 03:26:16;;;;;;;0.43;0.43;;;;;;;;;;5093573;28;20653;-86
2022/09/18 03:28:43;;;;;;;0.50;0.50;;;;;;;;;;5092305;28;20242;-86
2022/09/18 03:31:10;;;;;;;0.60;0.60;;;;;;;;;;5079510;28;20246;-85
2022/09/18 03:33:37;;;;;;;0.50;0.50;;;;;;;;;;5091764;28;20206;-85
2022/09/18 03:36:05;;;;;;;0.90;0.90;;;;;;;;;;5092786;28;20647;-88
2022/09/18 03:38:33;;;;;;;0.90;0.90;;;;;;;;;;5092649;28;20233;-86
2022/09/18 03:41:00;;;;;;;0.60;0.60;;;;;;;;;;5092116;28;20680;-86
2022/09/18 03:43:27;;;;;;;0.73;0.73;;;;;;;;;;5092248;28;20201;-87
2022/09/18 03:45:53;;;;;;;0.90;0.90;;;;;;;;;;5092209;28;20214;-86
2022/09/18 03:48:20;;;;;;;0.93;0.93;;;;;;;;;;5091748;28;20205;-86
2022/09/18 03:50:48;;;;;;;1.13;1.13;;;;;;;;;;5092110;28;20222;-87
2022/09/18 03:53:15;;;;;;;0.90;0.90;;;;;;;;;;5091895;28;20719;-85
2022/09/18 03:55:43;;;;;;;1.30;1.30;;;;;;;;;;5086404;28;20208;-85
2022/09/18 03:58:10;;;;;;;0.83;0.83;;;;;;;;;;5072465;28;20208;-85
2022/09/18 04:00:36;;;;;;;0.77;0.77;;;;;;;;;;5089808;28;20210;-85
2022/09/18 04:03:03;;;;;;;0.70;0.70;;;;;;;;;;5081887;28;20238;-85
2022/09/18 04:05:30;;;;;;;1.00;1.00;;;;;;;;;;5087823;28;20232;-86
2022/09/18 04:07:57;;;;;;;0.93;0.93;;;;;;;;;;5083991;28;20205;-86
2022/09/18 04:10:25;;;;;;;1.60;1.50;;;;;;;;;;5086165;28;20203;-85
2022/09/18 04:12:54;;;;;;;1.17;1.13;;;;;;;;;;5091740;28;20635;-86
2022/09/18 04:15:20;;;;;;;1.20;1.20;;;;;;;;;;5091419;28;20205;-86
2022/09/18 04:17:47;;;;;;;0.90;0.90;;;;;;;;;;5091611;28;20639;-87
2022/09/18 04:20:14;;;;;;;1.40;1.30;;;;;;;;;;5091329;28;20200;-86
2022/09/18 04:22:41;;;;;;;1.20;1.10;;;;;;;;;;5091932;28;20223;-86
2022/09/18 04:25:09;;;;;;;0.90;0.90;;;;;;;;;;5091756;28;20615;-86
2022/09/18 04:27:35;;;;;;;0.83;0.83;;;;;;;;;;5091420;28;20628;-86
2022/09/18 04:30:04;;;;;;;1.00;1.00;;;;;;;;;;5091336;28;20228;-85
2022/09/18 04:32:31;;;;;;;1.00;1.00;;;;;;;;;;5081223;28;20210;-86
2022/09/18 04:34:58;;;;;;;0.70;0.70;;;;;;;;;;5071188;28;20210;-86
2022/09/18 04:37:25;;;;;;;0.70;0.70;;;;;;;;;;5079547;28;20687;-86
2022/09/18 04:39:51;;;;;;;0.50;0.50;;;;;;;;;;5091181;28;20688;-86
2022/09/18 04:42:21;;;;;;;0.93;0.93;;;;;;;;;;5091217;28;20233;-86
2022/09/18 04:44:48;;;;;;;0.70;0.70;;;;;;;;;;5091500;28;20211;-85
2022/09/18 04:47:16;;;;;;;1.43;1.00;;;;;;;;;;5085621;28;20219;-85
2022/09/18 04:49:43;;;;;;;0.77;0.63;;;;;;;;;;5082921;28;20205;-85
2022/09/18 04:52:09;;;;;;;0.70;0.70;;;;;;;;;;5091314;28;20205;-85
2022/09/18 04:54:36;;;;;;;0.73;0.67;;;;;;;;;;5091325;28;20202;-85
2022/09/18 04:57:04;;;;;;;0.67;0.67;;;;;;;;;;5090876;28;20219;-85
2022/09/18 04:59:30;;;;;;;1.50;0.60;;;;;;;;;;5082288;28;20217;-85
2022/09/18 05:01:57;;;;;;;0.50;0.50;;;;;;;;;;5085635;28;20224;-85
2022/09/18 05:04:25;;;;;;;0.30;0.30;;;;;;;;;;5090847;28;20204;-85
2022/09/18 05:06:52;;;;;;;1.00;0.93;;;;;;;;;;5090824;28;20201;-85
2022/09/18 05:09:19;;;;;;;0.50;0.50;;;;;;;;;;5091021;28;20210;-86
2022/09/18 05:11:46;;;;;;;0.50;0.50;;;;;;;;;;5090542;28;20676;-85
2022/09/18 05:14:12;;;;;;;0.37;0.37;;;;;;;;;;5087718;28;20220;-88
2022/09/18 05:16:39;;;;;;;0.40;0.40;;;;;;;;;;5071612;28;20267;-91
2022/09/18 05:19:06;;;;;;;0.63;0.63;;;;;;;;;;5079069;28;20258;-86
2022/09/18 05:21:34;;;;;;;0.60;0.60;;;;;;;;;;5090343;28;20282;-84
2022/09/18 05:24:01;;;;;;;1.03;0.63;;;;;;;;;;5083383;28;20200;-83
2022/09/18 05:26:29;;;;;;;0.80;0.80;;;;;;;;;;5090214;28;20196;-84
2022/09/18 05:28:56;;;;;;;0.60;0.60;;;;;;;;;;5086657;28;20233;-86
2022/09/18 05:31:23;;;;;;;0.40;0.40;;;;;;;;;;5081200;28;20331;-87
2022/09/18 05:36:38;;;;;;;0.87;0.87;;;;;;;;;;5080436;28;20208;-86
2022/09/18 05:39:04;;;;;;;0.53;0.53;;;;;;;;;;5091096;28;20209;-87
2022/09/18 05:41:31;;;;;;;0.53;0.53;;;;;;;;;;5090414;28;20646;-87
2022/09/18 05:43:58;;;;;;;0.80;0.80;;;;;;;;;;5090149;28;20593;-87
2022/09/18 05:46:25;;;;;;;0.53;0.53;;;;;;;;;;5090404;28;20207;-86
2022/09/18 05:48:52;;;;;;;0.60;0.60;;;;;;;;;;5090072;28;20201;-88
2022/09/18 05:51:19;;;;;;;0.60;0.60;;;;;;;;;;5090444;28;20196;-88
2022/09/18 05:53:47;;;;;;;0.40;0.40;;;;;;;;;;5090413;28;20207;-87
2022/09/18 05:56:18;;;;;;;0.40;0.40;;;;;;;;;;5090640;28;20266;-88
2022/09/18 05:58:45;;;;;;;0.50;0.50;;;;;;;;;;5090228;28;20694;-89
2022/09/18 06:01:13;;;;;;;1.10;0.73;;;;;;;;;;5083316;28;20204;-88
2022/09/18 06:03:40;;;;;;;0.40;0.40;;;;;;;;;;5083713;28;20233;-91
2022/09/18 06:06:08;;;;;;;0.63;0.63;;;;;;;;;;5091296;28;20269;-90
2022/09/18 06:08:36;;;;;;;0.50;0.50;;;;;;;;;;5091393;28;20211;-88
2022/09/18 06:11:04;;;;;;;0.43;0.43;;;;;;;;;;5091177;28;20248;-89
2022/09/18 06:13:31;;;;;;;0.53;0.50;;;;;;;;;;5090430;28;20208;-88
2022/09/18 06:16:00;;;;;;;0.50;0.50;;;;;;;;;;5090534;28;21091;-89
2022/09/18 06:18:28;;;;;;;0.60;0.60;;;;;;;;;;5089550;28;20204;-87
2022/09/18 06:20:57;;;;;;;0.70;0.70;;;;;;;;;;5088157;28;20203;-89
2022/09/18 06:23:25;;;;;;;0.40;0.40;;;;;;;;;;5090430;28;20225;-88
2022/09/18 06:25:57;;;;;;;0.40;0.40;;;;;;;;;;5091254;28;20204;-87
2022/09/18 06:28:26;;;;;;;0.57;0.57;;;;;;;;;;5080767;28;20328;-86
2022/09/18 06:30:53;;;;;;;0.53;0.53;;;;;;;;;;5093259;28;20217;-85
2022/09/18 06:33:19;;;;;;;0.37;0.37;;;;;;;;;;5093540;28;20205;-86
2022/09/18 06:35:47;;;;;;;1.40;0.50;;;;;;;;;;5088750;28;20218;-87
2022/09/18 06:38:15;;;;;;;0.40;0.40;;;;;;;;;;5093053;28;20227;-87
2022/09/18 06:40:48;;;;;;;0.30;0.30;;;;;;;;;;5092174;28;20200;-84
2022/09/18 06:43:15;;;;;;;0.60;0.60;;;;;;;;;;5083813;28;20220;-85
2022/09/18 06:45:43;;;;;;;0.40;0.40;;;;;;;;;;5090114;28;20593;-85
2022/09/18 06:48:10;;;;;;;0.40;0.40;;;;;;;;;;5091020;28;20198;-87
2022/09/18 06:50:37;;;;;;;0.70;0.70;;;;;;;;;;5058798;28;20210;-88
2022/09/18 06:53:04;;;;;;;0.50;0.50;;;;;;;;;;5075003;28;20631;-86
2022/09/18 06:55:32;;;;;;;0.43;0.43;;;;;;;;;;5090448;28;20198;-86
2022/09/18 06:58:00;;;;;;;0.77;0.77;;;;;;;;;;5080345;28;20271;-83
2022/09/18 07:00:28;;;;;;;0.37;0.37;;;;;;;;;;5075095;28;20213;-85
2022/09/18 07:02:58;;;;;;;0.57;0.57;;;;;;;;;;5074815;28;20238;-85
2022/09/18 07:05:26;;;;;;;0.57;0.57;;;;;;;;;;5074950;28;20278;-85
2022/09/18 07:07:53;;;;;;;0.77;0.57;;;;;;;;;;5092666;28;20205;-85
2022/09/18 07:10:21;;;;;;;0.63;0.63;;;;;;;;;;5092869;28;20202;-86
2022/09/18 07:12:48;;;;;;;0.70;0.70;;;;;;;;;;5092196;28;20288;-85
2022/09/18 07:15:18;;;;;;;0.80;0.80;;;;;;;;;;5088870;28;20214;-91
2022/09/18 07:17:45;;;;;;;0.50;0.50;;;;;;;;;;5089546;28;20196;-92
2022/09/18 07:20:14;;;;;;;0.67;0.67;;;;;;;;;;5073275;28;20695;-86
2022/09/18 07:22:42;;;;;;;0.73;0.73;;;;;;;;;;5074490;28;20669;-88
2022/09/18 07:25:10;;;;;;;0.70;0.70;;;;;;;;;;5092446;28;20208;-87
2022/09/18 07:27:37;;;;;;;0.47;0.47;;;;;;;;;;5091944;28;20232;-90
2022/09/18 07:30:04;;;;;;;1.00;1.00;;;;;;;;;;5091513;28;20228;-91
2022/09/18 07:32:31;;;;;;;0.70;0.70;;;;;;;;;;5092077;28;20206;-90
2022/09/18 07:34:58;;;;;;;0.60;0.60;;;;;;;;;;5092449;28;20204;-90
2022/09/18 07:37:26;;;;;;;0.80;0.80;;;;;;;;;;5092983;28;20208;-87
2022/09/18 07:39:54;;;;;;;1.93;1.00;;;;;;;;;;5091641;28;20201;-91
2022/09/18 07:42:20;;;;;;;1.00;1.00;;;;;;;;;;5093088;28;20228;-92
2022/09/18 07:44:47;;;;;;;0.83;0.83;;;;;;;;;;5093324;28;20201;-90
2022/09/18 07:47:14;;;;;;;0.80;0.80;;;;;;;;;;5093034;28;20203;-88
2022/09/18 07:49:41;;;;;;;0.80;0.80;;;;;;;;;;5093158;28;20675;-89
2022/09/18 07:52:08;;;;;;;0.73;0.73;;;;;;;;;;5092967;28;20209;-89
2022/09/18 07:54:37;;;;;;;0.80;0.80;;;;;;;;;;5093081;28;20203;-92
2022/09/18 07:57:04;;;;;;;0.60;0.60;;;;;;;;;;5092891;28;20260;-91
2022/09/18 07:59:31;;;;;;;0.67;0.60;;;;;;;;;;5092389;28;20216;-90
2022/09/18 08:01:58;;;;;;;0.80;0.80;;;;;;;;;;5078733;28;20199;-91
2022/09/18 08:04:26;;;;;;;0.70;0.70;;;;;;;;;;5092905;28;20207;-90
2022/09/18 08:06:53;;;;;;;0.90;0.90;;;;;;;;;;5092226;28;20206;-93
2022/09/18 08:09:21;;;;;;;0.53;0.53;;;;;;;;;;5092807;28;20207;-89
2022/09/18 08:11:51;;;;;;;0.80;0.80;;;;;;;;;;5092696;28;20286;-92
2022/09/18 08:14:22;;;;;;;0.77;0.77;;;;;;;;;;5092394;28;20203;-90
2022/09/18 08:16:49;;;;;;;1.30;1.30;;;;;;;;;;5093032;28;20207;-90
2022/09/18 08:19:16;;;;;;;0.80;0.80;;;;;;;;;;5092225;28;20203;-91
2022/09/18 08:21:43;;;;;;;0.40;0.40;;;;;;;;;;5093038;28;20207;-91
2022/09/18 08:24:12;;;;;;;0.80;0.70;;;;;;;;;;5091839;28;20237;-91
2022/09/18 08:26:42;;;;;;;0.47;0.40;;;;;;;;;;5092451;28;20652;-86
2022/09/18 08:29:17;;;;;;;0.53;0.53;;;;;;;;;;5092143;28;20322;-91
2022/09/18 08:31:44;;;;;;;0.83;0.83;;;;;;;;;;5078469;28;20242;-89
2022/09/18 08:34:11;;;;;;;0.63;0.63;;;;;;;;;;5092449;28;20223;-89
2022/09/18 08:36:38;;;;;;;0.50;0.50;;;;;;;;;;5092186;28;20285;-89
2022/09/18 08:39:05;;;;;;;0.57;0.57;;;;;;;;;;5092229;28;20211;-89
2022/09/18 08:41:45;;;;;;;0.50;0.50;;;;;;;;;;5092016;28;20200;-86
2022/09/18 08:44:17;;;;;;;0.60;0.60;;;;;;;;;;5083914;28;20250;-89
2022/09/18 08:46:48;;;;;;;0.50;0.50;;;;;;;;;;5073455;28;20265;-91
2022/09/18 08:49:25;;;;;;;0.50;0.50;;;;;;;;;;5074152;28;20579;-94
2022/09/18 08:51:55;;;;;;;0.53;0.53;;;;;;;;;;5092518;28;20210;-86
2022/09/18 08:54:28;;;;;;;0.57;0.57;;;;;;;;;;5091927;28;20205;-91
2022/09/18 08:56:56;;;;;;;0.87;0.87;;;;;;;;;;5091576;28;20208;-90
2022/09/18 08:59:29;;;;;;;0.53;0.53;;;;;;;;;;5084214;28;20201;-88
2022/09/18 09:02:08;;;;;;;0.67;0.67;;;;;;;;;;5086331;28;20205;-88
2022/09/18 09:04:35;;;;;;;0.60;0.60;;;;;;;;;;5091152;28;20231;-91
2022/09/18 09:07:09;;;;;;;0.50;0.50;;;;;;;;;;5091414;28;20206;-91
2022/09/18 09:09:46;;;;;;;0.50;0.50;;;;;;;;;;5091442;28;20215;-90
2022/09/18 09:12:21;;;;;;;0.50;0.50;;;;;;;;;;5092032;28;20681;-89
2022/09/18 09:15:11;;;;;;;1.10;1.07;;;;;;;;;;5091702;28;20211;-90
2022/09/18 09:17:40;;;;;;;0.67;0.67;;;;;;;;;;5091107;28;20203;-88
2022/09/18 09:20:22;;;;;;;0.30;0.30;;;;;;;;;;5091553;28;20218;-91
2022/09/18 09:23:06;;;;;;;0.40;0.40;;;;;;;;;;5091435;28;20305;-93
2022/09/18 09:25:38;;;;;;;0.50;0.50;;;;;;;;;;5091309;28;20205;-89
2022/09/18 09:28:12;;;;;;;0.50;0.50;;;;;;;;;;5090838;28;20692;-91
2022/09/18 09:30:42;;;;;;;0.43;0.43;;;;;;;;;;5091067;28;20556;-90
2022/09/18 09:33:19;;;;;;;0.30;0.30;;;;;;;;;;5091235;28;20214;-88
2022/09/18 09:35:47;;;;;;;0.33;0.33;;;;;;;;;;5091060;28;20213;-87
2022/09/18 09:38:31;;;;;;;0.40;0.40;;;;;;;;;;5091463;28;20214;-91
2022/09/18 09:40:59;;;;;;;0.40;0.40;;;;;;;;;;5091229;28;20237;-89
2022/09/18 09:43:30;;;;;;;0.47;0.47;;;;;;;;;;5090950;28;20234;-89
2022/09/18 09:46:02;;;;;;;0.30;0.30;;;;;;;;;;5091366;28;20213;-91
2022/09/18 09:48:34;;;;;;;0.50;0.50;;;;;;;;;;5091148;28;20204;-92
2022/09/18 09:51:04;;;;;;;0.40;0.40;;;;;;;;;;5090877;28;20204;-88
2022/09/18 09:53:32;;;;;;;0.40;0.40;;;;;;;;;;5091225;28;20218;-92
2022/09/18 09:56:05;;;;;;;0.50;0.50;;;;;;;;;;5091420;28;20209;-89
2022/09/18 09:58:44;;;;;;;0.40;0.40;;;;;;;;;;5091118;28;20558;-92
2022/09/18 10:01:15;;;;;;;0.27;0.27;;;;;;;;;;5092502;28;20275;-90
2022/09/18 10:03:48;;;;;;;0.30;0.30;;;;;;;;;;5094404;28;20333;-92
2022/09/18 10:06:23;;;;;;;0.40;0.40;;;;;;;;;;5095235;28;20211;-90
2022/09/18 10:08:54;;;;;;;0.50;0.50;;;;;;;;;;5095152;28;20208;-90
2022/09/18 10:11:22;;;;;;;0.90;0.90;;;;;;;;;;5077108;28;20212;-88
2022/09/18 10:13:52;;;;;;;0.50;0.50;;;;;;;;;;5094707;28;20233;-90
2022/09/18 10:16:23;;;;;;;0.40;0.40;;;;;;;;;;5094668;28;20203;-88
2022/09/18 10:18:50;;;;;;;0.50;0.50;;;;;;;;;;5094594;28;20203;-91
2022/09/18 10:21:19;;;;;;;0.40;0.40;;;;;;;;;;5094643;28;20218;-89
2022/09/18 10:23:49;;;;;;;0.40;0.40;;;;;;;;;;5094996;28;20288;-90
2022/09/18 10:26:20;;;;;;;0.50;0.50;;;;;;;;;;5094724;28;20211;-91
2022/09/18 10:28:47;;;;;;;0.80;0.80;;;;;;;;;;5082658;28;20239;-89
2022/09/18 10:31:14;;;;;;;0.40;0.40;;;;;;;;;;5092486;28;20204;-90
2022/09/18 10:33:44;;;;;;;0.50;0.50;;;;;;;;;;5094543;28;22400;-90
2022/09/18 10:36:21;;;;;;;0.60;0.60;;;;;;;;;;5094783;28;20212;-91
2022/09/18 10:38:48;;;;;;;0.50;0.50;;;;;;;;;;5094137;28;20242;-86
2022/09/18 10:41:25;;;;;;;0.53;0.53;;;;;;;;;;5094161;28;20217;-87
2022/09/18 10:43:58;;;;;;;0.57;0.57;;;;;;;;;;5093865;28;20223;-91
2022/09/18 10:46:29;;;;;;;0.60;0.60;;;;;;;;;;5094384;28;20204;-91
2022/09/18 10:48:59;;;;;;;0.60;0.60;;;;;;;;;;5093782;28;20238;-91
2022/09/18 10:51:28;;;;;;;0.53;0.53;;;;;;;;;;5094186;28;20283;-89
2022/09/18 10:54:08;;;;;;;0.60;0.60;;;;;;;;;;5094135;28;20208;-91
2022/09/18 10:56:35;;;;;;;0.50;0.50;;;;;;;;;;5094062;28;20211;-90
2022/09/18 10:59:34;;;;;;;1.33;1.33;;;;;;;;;;5094188;28;20200;-88
2022/09/18 11:02:02;;;;;;;0.60;0.60;;;;;;;;;;5091576;28;20702;-89
2022/09/18 11:04:31;;;;;;;0.93;0.90;;;;;;;;;;5093734;28;20609;-91
2022/09/18 11:07:02;;;;;;;0.60;0.60;;;;;;;;;;5094179;28;20243;-89
2022/09/18 11:09:33;;;;;;;0.60;0.60;;;;;;;;;;5093877;28;20207;-90
2022/09/18 11:12:00;;;;;;;0.60;0.60;;;;;;;;;;5093508;28;20232;-90
2022/09/18 11:14:29;;;;;;;0.60;0.60;;;;;;;;;;5093145;28;20196;-90
2022/09/18 11:16:57;;;;;;;0.70;0.70;;;;;;;;;;5093557;28;20232;-89
2022/09/18 11:19:28;;;;;;;0.60;0.60;;;;;;;;;;5093155;28;20196;-89
2022/09/18 11:21:59;;;;;;;0.70;0.70;;;;;;;;;;5094047;28;20269;-91
2022/09/18 11:24:27;;;;;;;0.70;0.70;;;;;;;;;;5093419;28;20231;-89
2022/09/18 11:26:56;;;;;;;0.87;0.87;;;;;;;;;;5093863;28;20196;-88
2022/09/18 11:29:28;;;;;;;0.60;0.60;;;;;;;;;;5093332;28;20321;-90
2022/09/18 11:31:57;;;;;;;0.70;0.70;;;;;;;;;;5093679;28;20238;-90
2022/09/18 11:34:26;;;;;;;0.70;0.70;;;;;;;;;;5093226;28;20215;-90
2022/09/18 11:36:56;;;;;;;0.70;0.70;;;;;;;;;;5079219;28;20277;-90
2022/09/18 11:39:28;;;;;;;0.97;0.97;;;;;;;;;;5093580;28;20698;-90
2022/09/18 11:41:55;;;;;;;1.13;1.13;;;;;;;;;;5093061;28;20204;-90
2022/09/18 11:44:25;;;;;;;0.77;0.77;;;;;;;;;;5093557;28;20224;-91
2022/09/18 11:47:16;;;;;;;0.70;0.70;;;;;;;;;;5093313;28;20283;-88
2022/09/18 11:49:46;;;;;;;0.60;0.60;;;;;;;;;;5092527;28;20201;-90
2022/09/18 11:52:17;;;;;;;0.70;0.70;;;;;;;;;;5093320;28;20257;-89
2022/09/18 11:54:51;;;;;;;0.80;0.80;;;;;;;;;;5093130;28;20208;-91
2022/09/18 11:57:21;;;;;;;0.60;0.60;;;;;;;;;;5092685;28;20253;-90
2022/09/18 11:59:52;;;;;;;0.80;0.80;;;;;;;;;;5093052;28;20207;-91
2022/09/18 12:02:27;;;;;;;0.90;0.90;;;;;;;;;;5092790;28;20207;-89
2022/09/18 12:05:00;;;;;;;0.63;0.63;;;;;;;;;;5093237;28;20227;-90
2022/09/18 12:07:33;;;;;;;0.90;0.90;;;;;;;;;;5092494;28;20295;-88
2022/09/18 12:10:07;;;;;;;0.77;0.77;;;;;;;;;;5092416;28;20678;-88
2022/09/18 12:12:37;;;;;;;0.83;0.83;;;;;;;;;;5092531;28;20697;-89
2022/09/18 12:15:09;;;;;;;0.70;0.70;;;;;;;;;;5092251;28;20215;-91
2022/09/18 12:17:41;;;;;;;1.37;0.90;;;;;;;;;;5092658;28;20205;-88
2022/09/18 12:20:12;;;;;;;0.70;0.70;;;;;;;;;;5092445;28;20211;-89
2022/09/18 12:22:47;;;;;;;0.80;0.80;;;;;;;;;;5092440;28;20298;-91
2022/09/18 12:25:15;;;;;;;0.80;0.80;;;;;;;;;;5091675;28;20255;-88
2022/09/18 12:27:45;;;;;;;0.80;0.63;;;;;;;;;;5092657;28;20200;-91
2022/09/18 12:30:15;;;;;;;0.70;0.70;;;;;;;;;;5092279;28;20224;-86
2022/09/18 12:32:55;;;;;;;0.90;0.90;;;;;;;;;;5092323;28;20228;-91
2022/09/18 12:35:29;;;;;;;0.60;0.60;;;;;;;;;;5087283;28;20277;-86
2022/09/18 12:38:08;;;;;;;1.10;0.90;;;;;;;;;;5089244;28;20234;-89
2022/09/18 12:40:45;;;;;;;0.77;0.77;;;;;;;;;;5073576;28;20203;-89
2022/09/18 12:43:40;;;;;;;0.70;0.70;;;;;;;;;;5074088;28;20216;-86
2022/09/18 12:46:37;;;;;;;0.63;0.63;;;;;;;;;;5090233;28;20670;-88
2022/09/18 12:49:43;;;;;;;0.83;0.83;;;;;;;;;;5071441;28;20212;-88
2022/09/18 12:52:20;;;;;;;0.77;0.67;;;;;;;;;;5048941;28;20283;-86
2022/09/18 12:55:20;;;;;;;0.80;0.80;;;;;;;;;;5079089;28;20223;-91
2022/09/18 12:57:53;;;;;;;0.80;0.80;;;;;;;;;;5057926;28;20602;-88
2022/09/18 13:00:21;;;;;;;0.90;0.90;;;;;;;;;;5091509;28;20201;-89
2022/09/18 13:02:52;;;;;;;0.80;0.80;;;;;;;;;;5091724;28;20705;-88
2022/09/18 13:05:24;;;;;;;0.73;0.73;;;;;;;;;;5091963;28;20232;-90
2022/09/18 13:07:53;;;;;;;0.97;0.97;;;;;;;;;;5087965;28;20193;-89
2022/09/18 13:10:25;;;;;;;0.83;0.83;;;;;;;;;;5081306;28;20196;-88
2022/09/18 13:12:57;;;;;;;0.70;0.70;;;;;;;;;;5091474;28;20698;-90
2022/09/18 13:15:27;;;;;;;0.50;0.50;;;;;;;;;;5073463;28;20203;-87
2022/09/18 13:17:57;;;;;;;0.70;0.70;;;;;;;;;;5091430;28;20200;-86
2022/09/18 13:20:26;;;;;;;0.77;0.60;;;;;;;;;;5091533;28;20204;-92
2022/09/18 13:22:54;;;;;;;0.70;0.70;;;;;;;;;;5091656;28;20611;-91
2022/09/18 13:25:39;;;;;;;0.83;0.83;;;;;;;;;;5053292;28;20224;-87
2022/09/18 13:28:10;;;;;;;0.77;0.77;;;;;;;;;;5087173;28;20203;-89
2022/09/18 13:30:37;;;;;;;0.80;0.80;;;;;;;;;;5091120;28;20616;-87
2022/09/18 13:33:04;;;;;;;0.80;0.80;;;;;;;;;;5073334;28;20200;-88
2022/09/18 13:35:33;;;;;;;0.80;0.80;;;;;;;;;;5092912;28;20246;-89
2022/09/18 13:38:13;;;;;;;0.67;0.67;;;;;;;;;;5095376;28;20212;-89
2022/09/18 13:40:44;;;;;;;0.70;0.70;;;;;;;;;;5094945;28;20682;-88
2022/09/18 13:43:18;;;;;;;0.70;0.70;;;;;;;;;;5078292;28;20208;-87
2022/09/18 13:45:45;;;;;;;0.70;0.70;;;;;;;;;;5082264;28;20223;-88
2022/09/18 13:48:20;;;;;;;0.70;0.70;;;;;;;;;;5076998;28;20678;-90
2022/09/18 13:50:55;;;;;;;0.80;0.80;;;;;;;;;;5095344;28;20211;-89
2022/09/18 13:53:33;;;;;;;0.80;0.80;;;;;;;;;;5095258;28;20203;-85
2022/09/18 13:56:02;;;;;;;3.70;0.73;;;;;;;;;;5082405;28;20203;-88
2022/09/18 13:58:36;;;;;;;0.90;0.90;;;;;;;;;;5094474;28;20686;-91
2022/09/18 14:01:04;;;;;;;0.70;0.70;;;;;;;;;;5095194;28;20212;-89
2022/09/18 14:03:37;;;;;;;1.33;1.33;;;;;;;;;;5094470;28;20207;-89
2022/09/18 14:06:39;;;;;;;0.80;0.80;;;;;;;;;;5094868;28;20231;-89
2022/09/18 14:09:25;;;;;;;0.63;0.63;;;;;;;;;;5091432;28;20215;-90
2022/09/18 14:11:53;;;;;;;0.90;0.90;;;;;;;;;;5082702;28;20208;-88
2022/09/18 14:14:22;;;;;;;0.77;0.77;;;;;;;;;;5079232;28;20204;-90
2022/09/18 14:16:49;;;;;;;0.80;0.80;;;;;;;;;;5094939;28;20200;-89
2022/09/18 14:19:32;;;;;;;0.73;0.73;;;;;;;;;;5093534;28;20211;-87
2022/09/18 14:21:59;;;;;;;0.70;0.70;;;;;;;;;;5091147;28;20196;-90
2022/09/18 14:24:55;;;;;;;0.83;0.83;;;;;;;;;;5094157;28;20231;-86
2022/09/18 14:27:55;;;;;;;0.83;0.83;;;;;;;;;;5094635;28;20580;-88
2022/09/18 14:30:25;;;;;;;0.87;0.87;;;;;;;;;;5037637;28;20202;-86
2022/09/18 14:33:04;;;;;;;1.10;1.10;;;;;;;;;;5047455;28;20214;-88
2022/09/18 14:35:43;;;;;;;1.37;0.70;;;;;;;;;;5040902;28;20209;-87
2022/09/18 14:38:26;;;;;;;0.80;0.80;;;;;;;;;;5052484;28;20209;-86
2022/09/18 14:40:58;;;;;;;0.80;0.80;;;;;;;;;;5053494;28;20241;-88
2022/09/18 14:43:27;;;;;;;0.60;0.60;;;;;;;;;;5053383;28;20217;-87
2022/09/18 14:45:54;;;;;;;1.00;1.00;;;;;;;;;;5053130;28;20708;-86
2022/09/18 14:48:26;;;;;;;0.83;0.83;;;;;;;;;;5052686;28;20206;-86
2022/09/18 14:51:04;;;;;;;0.77;0.77;;;;;;;;;;5053630;28;20210;-88
2022/09/18 14:53:41;;;;;;;0.87;0.87;;;;;;;;;;5053025;28;20594;-86
2022/09/18 14:56:12;;;;;;;1.03;1.00;;;;;;;;;;5051992;28;20233;-85
2022/09/18 14:58:43;;;;;;;1.03;1.03;;;;;;;;;;5052941;28;20269;-86
2022/09/18 15:01:16;;;;;;;0.90;0.90;;;;;;;;;;5053218;28;20201;-86
2022/09/18 15:03:45;;;;;;;1.33;1.20;;;;;;;;;;5051486;28;20244;-86
2022/09/18 15:06:17;;;;;;;0.90;0.90;;;;;;;;;;5053048;28;20228;-87